Time;durP1;ratioP1;P1;durP2;ratioP2;P2;SDS_P1;SDS_P2;PMS_P1;PMS_P2;Temp;Humidity;BMP_temperature;BMP_pressure;BME280_temperature;BME280_humidity;BME280_pressure;Samples;Min_cycle;Max_cycle;Signal;HPM_P1;HPM_P2
2021/12/21 00:00:12;;;;;;;52.80;15.90;;;;;;;0.00;71.12;102197.25;684559;28;1370;-78
2021/12/21 00:00:33;;;;;;;43.80;16.02;;;;;;;0.12;71.11;102207.75;687050;28;961;-78
2021/12/21 00:00:54;;;;;;;38.83;15.77;;;;;;;0.06;71.07;102200.34;686582;28;1060;-78
2021/12/21 00:01:15;;;;;;;41.08;15.38;;;;;;;0.04;71.09;102198.44;690324;28;1244;-78
2021/12/21 00:01:36;;;;;;;51.70;16.50;;;;;;;0.06;71.18;102200.34;692365;28;932;-78
2021/12/21 00:01:56;;;;;;;49.95;16.60;;;;;;;0.05;71.33;102197.66;690579;28;1712;-78
2021/12/21 00:02:17;;;;;;;44.80;16.80;;;;;;;0.06;71.23;102204.59;690825;28;1275;-78
2021/12/21 00:02:43;;;;;;;45.35;16.60;;;;;;;0.06;71.22;102205.47;690761;28;1574;-78
2021/12/21 00:03:04;;;;;;;46.88;17.25;;;;;;;0.10;71.43;102206.69;689604;28;1432;-78
2021/12/21 00:03:25;;;;;;;53.45;17.42;;;;;;;0.11;71.40;102203.38;688266;28;953;-79
2021/12/21 00:03:45;;;;;;;51.40;16.92;;;;;;;0.08;71.28;102205.63;688140;28;1475;-79
2021/12/21 00:04:06;;;;;;;50.70;15.77;;;;;;;0.11;71.32;102213.66;688161;28;999;-78
2021/12/21 00:04:26;;;;;;;59.70;15.30;;;;;;;0.12;71.35;102206.06;685564;28;804;-78
2021/12/21 00:04:47;;;;;;;59.60;15.48;;;;;;;0.13;71.35;102207.00;691102;28;1036;-78
2021/12/21 00:05:09;;;;;;;65.87;16.77;;;;;;;0.08;71.40;102195.38;688159;28;1084;-78
2021/12/21 00:05:30;;;;;;;55.00;17.30;;;;;;;0.12;71.37;102208.63;688844;28;843;-78
2021/12/21 00:05:51;;;;;;;65.03;17.20;;;;;;;0.11;71.48;102203.38;693089;28;1413;-78
2021/12/21 00:06:11;;;;;;;99.60;18.00;;;;;;;0.10;71.43;102204.13;688128;28;1235;-78
2021/12/21 00:06:32;;;;;;;105.43;17.77;;;;;;;0.11;71.19;102213.66;684830;28;961;-78
2021/12/21 00:06:52;;;;;;;121.93;18.85;;;;;;;0.09;71.42;102202.31;685709;28;1520;-78
2021/12/21 00:07:13;;;;;;;89.37;17.23;;;;;;;0.04;71.34;102198.44;685547;28;1091;-79
2021/12/21 00:07:34;;;;;;;82.25;16.80;;;;;;;0.02;71.59;102198.28;685582;28;810;-78
2021/12/21 00:08:00;;;;;;;52.30;16.27;;;;;;;0.04;71.39;102206.13;687517;28;1149;-78
2021/12/21 00:08:21;;;;;;;40.38;16.23;;;;;;;0.09;71.41;102210.00;680434;29;1100;-78
2021/12/21 00:08:42;;;;;;;40.85;16.38;;;;;;;0.11;71.50;102214.53;682677;28;1178;-78
2021/12/21 00:09:02;;;;;;;42.63;16.10;;;;;;;0.04;71.74;102208.69;685270;28;1143;-79
2021/12/21 00:09:23;;;;;;;45.22;15.90;;;;;;;0.03;71.61;102199.19;690480;28;1237;-78
2021/12/21 00:09:43;;;;;;;45.28;16.33;;;;;;;0.12;71.39;102208.63;688647;28;1220;-79
2021/12/21 00:10:04;;;;;;;46.47;16.43;;;;;;;0.11;71.56;102208.53;688094;28;1000;-78
2021/12/21 00:10:28;;;;;;;50.70;16.98;;;;;;;0.15;71.54;102219.97;685518;28;1182;-78
2021/12/21 00:10:49;;;;;;;49.50;16.85;;;;;;;0.11;71.79;102200.81;685439;28;1131;-78
2021/12/21 00:11:10;;;;;;;47.07;17.00;;;;;;;0.16;71.61;102209.81;685456;28;1035;-78
2021/12/21 00:11:30;;;;;;;57.55;17.45;;;;;;;0.14;71.77;102203.66;687147;28;946;-79
2021/12/21 00:11:51;;;;;;;75.85;18.50;;;;;;;0.10;71.67;102204.13;688461;28;2327;-79
2021/12/21 00:12:15;;;;;;;74.50;18.67;;;;;;;0.10;71.66;102201.53;688033;28;1970;-78
2021/12/21 00:12:37;;;;;;;63.03;17.77;;;;;;;0.12;71.76;102195.78;687390;28;1053;-78
2021/12/21 00:13:35;;;;;;;53.20;17.02;;;;;;;0.19;71.48;102206.66;685390;28;1148;-79
2021/12/21 00:14:10;;;;;;;58.53;16.85;;;;;;;0.14;71.42;102200.16;682915;28;1325;-78
2021/12/21 00:14:57;;;;;;;71.88;16.63;;;;;;;0.10;71.63;102196.41;677447;29;1053;-78
2021/12/21 00:15:26;;;;;;;48.67;17.25;;;;;;;0.14;71.40;102197.59;682766;29;1012;-78
2021/12/21 00:15:57;;;;;;;49.15;17.20;;;;;;;0.16;71.57;102202.13;685145;28;2169;-78
2021/12/21 00:17:41;;;;;;;72.70;18.42;;;;;;;0.16;71.25;102202.13;683501;28;1327;-78
2021/12/21 00:19:07;;;;;;;73.68;17.38;;;;;;;0.07;71.21;102183.31;688056;28;888;-78
2021/12/21 00:20:24;;;;;;;101.40;19.33;;;;;;;0.09;71.25;102200.66;687903;28;1098;-78
2021/12/21 00:20:54;;;;;;;78.30;18.50;;;;;;;0.14;71.54;102207.88;689094;28;1140;-78
2021/12/21 00:21:51;;;;;;;92.25;17.60;;;;;;;0.08;71.27;102197.94;693539;28;1170;-78
2021/12/21 00:22:53;;;;;;;90.90;17.98;;;;;;;0.11;71.80;102203.38;690703;28;2233;-78
2021/12/21 00:24:00;;;;;;;110.78;19.08;;;;;;;0.06;71.57;102195.22;691286;28;1058;-78
2021/12/21 00:24:23;;;;;;;118.25;20.30;;;;;;;0.06;71.13;102196.91;693387;28;1191;-78
2021/12/21 00:24:48;;;;;;;107.80;20.20;;;;;;;0.03;71.27;102194.06;690767;28;1213;-78
2021/12/21 00:25:09;;;;;;;92.30;17.92;;;;;;;0.00;71.11;102189.53;690609;28;1535;-78
2021/12/21 00:25:29;;;;;;;82.63;17.42;;;;;;;0.05;71.30;102197.66;688231;28;795;-78
2021/12/21 00:25:51;;;;;;;77.30;18.15;;;;;;;0.06;71.40;102204.59;679988;28;1184;-78
2021/12/21 00:26:14;;;;;;;69.82;18.35;;;;;;;0.02;71.39;102194.78;681366;29;1051;-78
2021/12/21 00:26:36;;;;;;;71.72;18.25;;;;;;;-0.01;71.37;102185.16;684062;28;824;-79
2021/12/21 00:26:58;;;;;;;77.13;17.55;;;;;;;-0.03;71.68;102192.72;681931;28;1468;-78
2021/12/21 00:27:18;;;;;;;87.00;17.63;;;;;;;0.01;71.40;102198.13;686690;28;1468;-78
2021/12/21 00:27:39;;;;;;;92.40;18.23;;;;;;;0.00;71.30;102199.81;687228;28;1217;-78
2021/12/21 00:28:01;;;;;;;83.93;18.90;;;;;;;0.01;71.37;102192.97;685437;28;938;-79
2021/12/21 00:28:21;;;;;;;91.80;20.50;;;;;;;-0.02;71.48;102194.50;682710;29;1055;-78
2021/12/21 00:28:55;;;;;;;80.60;20.17;;;;;;;0.02;71.35;102199.91;683074;28;1053;-78
2021/12/21 00:29:20;;;;;;;56.35;16.90;;;;;;;-0.02;71.56;102197.09;682947;28;1243;-78
2021/12/21 00:29:41;;;;;;;55.47;16.35;;;;;;;-0.07;71.21;102193.16;687873;28;1134;-78
2021/12/21 00:30:02;;;;;;;62.08;17.77;;;;;;;-0.03;71.52;102200.41;687940;28;1251;-78
2021/12/21 00:30:22;;;;;;;71.50;18.80;;;;;;;0.01;71.32;102206.75;686927;28;1552;-79
2021/12/21 00:30:43;;;;;;;77.70;18.57;;;;;;;-0.04;71.46;102193.47;683117;28;1072;-78
2021/12/21 00:31:04;;;;;;;93.80;18.00;;;;;;;-0.03;71.60;102195.28;687135;28;1265;-78
2021/12/21 00:31:27;;;;;;;95.67;17.83;;;;;;;-0.06;71.43;102187.28;685548;28;837;-78
2021/12/21 00:31:48;;;;;;;96.20;19.23;;;;;;;-0.09;71.32;102184.44;685271;28;1115;-78
2021/12/21 00:32:09;;;;;;;90.97;19.50;;;;;;;-0.07;71.37;102193.16;685254;28;1938;-79
2021/12/21 00:32:30;;;;;;;80.30;17.88;;;;;;;-0.04;71.51;102195.13;682502;29;1236;-78
2021/12/21 00:32:50;;;;;;;74.75;17.38;;;;;;;-0.08;71.49;102190.47;682646;28;1053;-78
2021/12/21 00:33:11;;;;;;;68.47;17.77;;;;;;;-0.12;71.46;102184.16;682564;29;1111;-78
2021/12/21 00:33:31;;;;;;;68.27;18.60;;;;;;;-0.07;71.56;102193.16;685520;28;974;-78
2021/12/21 00:33:53;;;;;;;61.67;18.48;;;;;;;-0.09;71.71;102198.94;688540;28;1118;-78
2021/12/21 00:34:14;;;;;;;57.10;17.23;;;;;;;-0.10;71.70;102190.31;687840;28;1153;-79
2021/12/21 00:34:35;;;;;;;83.68;18.15;;;;;;;-0.13;71.85;102195.19;685018;28;1377;-78
2021/12/21 00:34:55;;;;;;;92.28;19.17;;;;;;;-0.11;71.69;102200.44;684388;28;1209;-78
2021/12/21 00:35:16;;;;;;;100.37;20.57;;;;;;;-0.16;71.79;102192.31;682003;28;1746;-78
2021/12/21 00:35:36;;;;;;;85.18;19.40;;;;;;;-0.13;71.82;102197.75;683207;28;1244;-78
2021/12/21 00:35:57;;;;;;;80.10;18.43;;;;;;;-0.15;71.68;102188.97;682572;28;1296;-78
2021/12/21 00:36:20;;;;;;;84.70;18.10;;;;;;;-0.12;71.77;102199.56;682801;29;1085;-78
2021/12/21 00:36:41;;;;;;;112.45;19.00;;;;;;;-0.18;71.51;102189.59;682932;28;1049;-78
2021/12/21 00:37:01;;;;;;;111.78;17.98;;;;;;;-0.18;71.91;102198.97;686461;28;1563;-78
2021/12/21 00:37:22;;;;;;;102.18;18.45;;;;;;;-0.16;71.80;102195.78;688153;28;1304;-78
2021/12/21 00:37:45;;;;;;;83.95;17.13;;;;;;;-0.20;71.87;102183.41;688575;28;1103;-78
2021/12/21 00:38:06;;;;;;;87.82;17.00;;;;;;;-0.18;71.80;102191.25;688106;28;1117;-79
2021/12/21 00:38:28;;;;;;;97.83;16.87;;;;;;;-0.14;71.49;102189.91;690823;28;1248;-78
2021/12/21 00:38:51;;;;;;;116.90;18.40;;;;;;;-0.18;71.72;102193.84;690579;28;1173;-78
2021/12/21 00:39:15;;;;;;;99.93;18.90;;;;;;;-0.22;71.77;102190.06;687682;28;1125;-78
2021/12/21 00:39:35;;;;;;;95.05;19.92;;;;;;;-0.25;71.72;102186.31;682657;29;820;-78
2021/12/21 00:39:56;;;;;;;110.53;20.03;;;;;;;-0.22;71.84;102189.16;687502;28;1235;-78
2021/12/21 00:40:23;;;;;;;137.70;20.35;;;;;;;-0.27;71.88;102187.84;681586;28;1603;-78
2021/12/21 00:40:43;;;;;;;156.38;20.13;;;;;;;-0.31;71.77;102181.50;685067;28;1027;-78
2021/12/21 00:41:04;;;;;;;140.73;18.70;;;;;;;-0.32;71.65;102185.72;689484;28;1112;-78
2021/12/21 00:41:25;;;;;;;117.32;18.40;;;;;;;-0.33;71.71;102177.91;689452;28;795;-79
2021/12/21 00:41:45;;;;;;;96.53;17.43;;;;;;;-0.35;71.92;102175.19;687070;28;1379;-78
2021/12/21 00:42:06;;;;;;;88.87;16.97;;;;;;;-0.30;71.49;102181.63;683304;28;1263;-78
2021/12/21 00:42:28;;;;;;;89.95;16.70;;;;;;;-0.26;71.40;102197.34;679878;29;1557;-78
2021/12/21 00:42:49;;;;;;;87.30;16.67;;;;;;;-0.37;71.50;102176.69;681458;29;1041;-78
2021/12/21 00:43:09;;;;;;;81.10;17.20;;;;;;;-0.33;72.01;102189.03;683147;28;1008;-78
2021/12/21 00:43:31;;;;;;;84.80;17.47;;;;;;;-0.36;71.88;102182.72;682525;28;1222;-78
2021/12/21 00:43:52;;;;;;;73.25;17.20;;;;;;;-0.40;71.77;102176.38;685229;28;1607;-78
2021/12/21 00:44:12;;;;;;;78.10;16.52;;;;;;;-0.38;71.89;102174.88;688606;28;1528;-78
2021/12/21 00:44:33;;;;;;;86.00;17.33;;;;;;;-0.38;71.94;102182.56;693627;28;783;-78
2021/12/21 00:44:53;;;;;;;83.00;16.67;;;;;;;-0.29;72.09;102192.81;691516;28;1181;-78
2021/12/21 00:45:14;;;;;;;91.30;17.83;;;;;;;-0.37;71.83;102165.53;687981;28;1159;-78
2021/12/21 00:45:34;;;;;;;92.60;18.13;;;;;;;-0.30;71.70;102183.31;690710;28;712;-78
2021/12/21 00:45:55;;;;;;;108.43;19.60;;;;;;;-0.30;71.69;102183.31;687878;28;1324;-78
2021/12/21 00:46:16;;;;;;;96.25;18.90;;;;;;;-0.33;71.78;102188.16;684743;28;1024;-78
2021/12/21 00:46:38;;;;;;;88.03;18.08;;;;;;;-0.37;71.66;102181.81;685561;28;804;-78
2021/12/21 00:47:11;;;;;;;63.47;16.40;;;;;;;-0.35;71.98;102190.56;685773;28;1267;-78
2021/12/21 00:47:33;;;;;;;53.30;16.13;;;;;;;-0.41;71.94;102179.72;687744;28;914;-78
2021/12/21 00:47:54;;;;;;;44.63;16.10;;;;;;;-0.40;71.97;102176.38;689855;28;1186;-79
2021/12/21 00:48:16;;;;;;;43.00;16.37;;;;;;;-0.40;72.32;102176.38;686720;28;1519;-78
2021/12/21 00:48:37;;;;;;;58.60;17.38;;;;;;;-0.34;72.33;102183.75;685463;28;1138;-78
2021/12/21 00:49:11;;;;;;;60.05;17.38;;;;;;;-0.32;72.17;102185.72;690572;28;1024;-78
2021/12/21 00:49:32;;;;;;;51.10;17.05;;;;;;;-0.31;72.20;102182.38;687913;28;830;-78
2021/12/21 00:49:59;;;;;;;49.75;16.52;;;;;;;-0.33;72.30;102183.91;687666;28;1258;-79
2021/12/21 00:50:21;;;;;;;52.83;16.20;;;;;;;-0.31;72.11;102187.53;688249;28;1361;-78
2021/12/21 00:50:42;;;;;;;64.60;16.75;;;;;;;-0.30;72.16;102184.19;685127;28;1143;-78
2021/12/21 00:51:05;;;;;;;61.92;17.30;;;;;;;-0.24;72.28;102185.53;685290;28;1057;-78
2021/12/21 00:51:34;;;;;;;67.18;17.75;;;;;;;-0.32;72.26;102180.59;682758;29;1892;-78
2021/12/21 00:51:55;;;;;;;77.38;19.75;;;;;;;-0.26;72.36;102187.94;686505;28;1958;-78
2021/12/21 00:52:16;;;;;;;81.70;20.25;;;;;;;-0.26;72.13;102189.63;687925;28;1910;-78
2021/12/21 00:52:36;;;;;;;93.67;19.50;;;;;;;-0.28;72.29;102181.78;688828;28;1409;-78
2021/12/21 00:52:57;;;;;;;104.67;19.43;;;;;;;-0.28;71.99;102179.22;687875;28;1496;-78
2021/12/21 00:53:18;;;;;;;92.03;17.58;;;;;;;-0.24;71.55;102185.53;682578;28;1092;-78
2021/12/21 00:53:39;;;;;;;91.30;17.83;;;;;;;-0.23;72.22;102188.25;685392;28;875;-79
2021/12/21 00:54:00;;;;;;;83.25;17.23;;;;;;;-0.21;71.93;102188.41;682491;28;1208;-78
2021/12/21 00:54:21;;;;;;;89.55;17.77;;;;;;;-0.18;72.04;102189.59;685399;28;1065;-79
2021/12/21 00:54:41;;;;;;;78.00;17.50;;;;;;;-0.19;71.91;102192.03;682955;28;1333;-78
2021/12/21 00:55:02;;;;;;;82.78;18.20;;;;;;;-0.23;71.72;102179.66;687720;28;1448;-78
2021/12/21 00:55:23;;;;;;;74.70;18.55;;;;;;;-0.20;71.83;102190.22;682355;29;985;-79
2021/12/21 00:55:44;;;;;;;92.65;19.30;;;;;;;-0.19;71.39;102186.91;682923;28;1161;-79
2021/12/21 00:56:05;;;;;;;87.37;18.97;;;;;;;-0.18;71.80;102178.44;682980;28;1110;-78
2021/12/21 00:56:25;;;;;;;102.47;19.23;;;;;;;-0.12;71.59;102184.16;683010;28;820;-78
2021/12/21 00:56:46;;;;;;;91.00;19.15;;;;;;;-0.11;71.69;102185.03;685158;28;1409;-78
2021/12/21 00:57:06;;;;;;;100.47;18.27;;;;;;;-0.04;71.50;102185.78;683007;28;1175;-78
2021/12/21 00:57:27;;;;;;;97.07;17.63;;;;;;;-0.01;71.58;102187.72;685332;28;978;-78
2021/12/21 00:57:47;;;;;;;132.85;18.45;;;;;;;-0.02;71.27;102180.75;683484;28;1104;-78
2021/12/21 00:58:08;;;;;;;122.05;19.42;;;;;;;-0.00;70.92;102180.91;682542;28;1106;-79
2021/12/21 00:58:30;;;;;;;138.60;19.90;;;;;;;-0.04;71.08;102192.56;682627;28;1373;-78
2021/12/21 00:58:50;;;;;;;160.50;21.77;;;;;;;-0.08;70.97;102190.47;683617;28;1496;-79
2021/12/21 00:59:11;;;;;;;190.80;23.60;;;;;;;-0.14;70.77;102180.50;682192;29;1164;-79
2021/12/21 00:59:40;;;;;;;169.85;24.30;;;;;;;-0.12;70.80;102194.41;687841;28;1073;-78
2021/12/21 01:00:04;;;;;;;97.80;19.50;;;;;;;-0.21;70.90;102189.31;686878;28;1032;-78
2021/12/21 01:00:25;;;;;;;94.63;18.33;;;;;;;-0.22;71.20;102177.25;691963;28;785;-78
2021/12/21 01:00:46;;;;;;;86.15;18.73;;;;;;;-0.18;71.32;102187.00;694372;28;1436;-78
2021/12/21 01:01:07;;;;;;;87.30;19.08;;;;;;;-0.25;70.94;102178.59;692727;28;1154;-78
2021/12/21 01:01:28;;;;;;;78.28;18.67;;;;;;;-0.23;71.26;102184.78;688641;28;1376;-79
2021/12/21 01:01:49;;;;;;;80.70;18.53;;;;;;;-0.23;71.32;102187.34;682757;28;1300;-79
2021/12/21 01:02:10;;;;;;;89.10;18.42;;;;;;;-0.24;71.30;102182.97;682516;29;1073;-78
2021/12/21 01:02:31;;;;;;;90.57;17.90;;;;;;;-0.26;71.28;102180.25;685438;28;740;-78
2021/12/21 01:02:52;;;;;;;69.90;17.42;;;;;;;-0.27;71.34;102177.56;685328;28;1122;-78
2021/12/21 01:03:15;;;;;;;65.70;17.65;;;;;;;-0.27;71.47;102177.56;687892;28;1088;-78
2021/12/21 01:03:42;;;;;;;56.40;17.90;;;;;;;-0.24;71.50;102178.75;688171;28;799;-78
2021/12/21 01:04:07;;;;;;;66.47;17.13;;;;;;;-0.24;71.29;102188.09;687801;28;1069;-78
2021/12/21 01:04:35;;;;;;;74.55;17.35;;;;;;;-0.25;71.57;102176.03;682575;28;1018;-78
2021/12/21 01:05:24;;;;;;;76.78;17.27;;;;;;;-0.21;71.32;102173.03;684952;28;1483;-78
2021/12/21 01:05:53;;;;;;;56.13;15.63;;;;;;;-0.12;71.46;102190.94;683988;28;961;-79
2021/12/21 01:06:45;;;;;;;43.50;16.27;;;;;;;-0.11;71.24;102183.38;685448;28;867;-78
2021/12/21 01:07:19;;;;;;;81.03;19.25;;;;;;;-0.15;71.32;102181.28;683679;28;1512;-79
2021/12/21 01:07:44;;;;;;;94.65;18.42;;;;;;;-0.11;71.20;102182.47;687263;28;855;-79
2021/12/21 01:08:06;;;;;;;73.20;18.05;;;;;;;-0.03;71.13;102186.66;685297;28;1068;-78
2021/12/21 01:08:30;;;;;;;72.25;17.80;;;;;;;-0.08;71.22;102178.53;690635;28;1228;-78
2021/12/21 01:09:38;;;;;;;133.55;19.98;;;;;;;-0.05;71.17;102185.63;690447;28;1059;-78
2021/12/21 01:10:46;;;;;;;82.40;18.55;;;;;;;-0.02;70.99;102180.75;686595;28;1390;-78
2021/12/21 01:11:31;;;;;;;65.80;17.20;;;;;;;-0.04;71.08;102172.94;691072;28;856;-78
2021/12/21 01:12:13;;;;;;;51.90;17.48;;;;;;;0.02;71.17;102176.81;686812;28;1982;-79
2021/12/21 01:13:28;;;;;;;80.93;18.67;;;;;;;0.01;71.21;102180.16;687862;28;1045;-79
2021/12/21 01:16:01;;;;;;;72.22;18.65;;;;;;;0.02;71.24;102179.38;692520;28;1347;-78
2021/12/21 01:17:04;;;;;;;70.15;19.83;;;;;;;0.04;71.12;102176.22;687699;28;1732;-79
2021/12/21 01:17:32;;;;;;;50.03;17.02;;;;;;;0.12;71.19;102184.66;685247;28;902;-78
2021/12/21 01:18:21;;;;;;;76.65;18.58;;;;;;;0.01;71.31;102177.59;688693;28;1014;-79
2021/12/21 01:18:59;;;;;;;66.70;18.60;;;;;;;-0.00;71.21;102178.34;685342;28;922;-78
2021/12/21 01:19:29;;;;;;;66.80;18.55;;;;;;;-0.04;71.50;102180.63;685604;28;1254;-78
2021/12/21 01:20:01;;;;;;;70.10;17.77;;;;;;;-0.10;71.70;102174.94;681416;28;1207;-78
2021/12/21 01:20:34;;;;;;;59.08;17.50;;;;;;;-0.11;71.63;102178.25;682246;29;1454;-78
2021/12/21 01:21:11;;;;;;;49.92;17.48;;;;;;;-0.06;71.74;102186.38;685127;28;1197;-78
2021/12/21 01:21:38;;;;;;;55.42;17.20;;;;;;;-0.07;71.66;102176.88;688090;28;860;-78
2021/12/21 01:22:22;;;;;;;61.72;17.80;;;;;;;-0.05;71.50;102178.84;693147;28;1477;-79
2021/12/21 01:23:20;;;;;;;74.63;18.42;;;;;;;-0.08;71.64;102175.97;691752;28;1170;-78
2021/12/21 01:24:45;;;;;;;54.05;17.08;;;;;;;0.06;71.61;102173.78;690641;28;858;-78
2021/12/21 01:26:30;;;;;;;60.38;18.58;;;;;;;0.04;71.56;102165.06;687515;28;1046;-78
2021/12/21 01:27:23;;;;;;;164.95;22.50;;;;;;;0.12;71.29;102179.50;685327;28;1096;-79
2021/12/21 01:27:53;;;;;;;153.75;21.38;;;;;;;0.05;71.13;102177.13;684963;28;1315;-78
2021/12/21 01:28:45;;;;;;;120.90;20.63;;;;;;;-0.02;71.18;102166.28;687809;28;1083;-78
2021/12/21 01:29:42;;;;;;;143.60;20.90;;;;;;;-0.03;71.20;102169.59;684841;28;886;-78
2021/12/21 01:30:16;;;;;;;123.60;21.25;;;;;;;-0.03;71.31;102177.31;677181;29;1341;-78
2021/12/21 01:30:48;;;;;;;112.63;20.65;;;;;;;-0.08;71.01;102173.41;680082;29;1227;-78
2021/12/21 01:32:05;;;;;;;100.68;19.70;;;;;;;-0.05;71.16;102175.34;686813;28;1118;-79
2021/12/21 01:33:08;;;;;;;77.47;17.80;;;;;;;-0.15;71.55;102176.13;685309;28;1072;-78
2021/12/21 01:34:54;;;;;;;125.60;19.23;;;;;;;-0.13;71.45;102166.94;684988;28;2013;-78
2021/12/21 01:35:22;;;;;;;86.15;19.75;;;;;;;-0.09;71.48;102176.72;689769;28;1466;-78
2021/12/21 01:35:47;;;;;;;97.05;19.70;;;;;;;-0.14;71.54;102165.13;690184;28;964;-79
2021/12/21 01:36:27;;;;;;;97.10;18.92;;;;;;;-0.06;71.39;102164.16;687537;28;1464;-78
2021/12/21 01:36:57;;;;;;;103.93;18.58;;;;;;;-0.00;71.34;102165.50;687866;28;1231;-79
2021/12/21 01:37:26;;;;;;;122.22;21.90;;;;;;;0.02;71.03;102170.03;685152;28;1005;-78
2021/12/21 01:38:52;;;;;;;133.15;21.58;;;;;;;-0.00;70.76;102157.81;686575;28;812;-78
2021/12/21 01:39:48;;;;;;;123.60;20.70;;;;;;;0.03;70.87;102166.72;683932;28;1023;-78
2021/12/21 01:40:39;;;;;;;110.20;20.70;;;;;;;0.01;70.94;102169.88;685046;28;1753;-79
2021/12/21 01:41:25;;;;;;;87.53;18.23;;;;;;;-0.06;70.73;102168.41;685904;28;1175;-78
2021/12/21 01:41:54;;;;;;;106.25;19.67;;;;;;;-0.05;70.93;102165.09;686618;28;1874;-78
2021/12/21 01:42:36;;;;;;;98.32;18.25;;;;;;;-0.04;70.84;102166.88;690835;28;1158;-78
2021/12/21 01:43:21;;;;;;;136.57;20.05;;;;;;;-0.04;70.59;102166.88;690020;28;1356;-78
2021/12/21 01:43:49;;;;;;;158.32;22.50;;;;;;;-0.00;70.81;102183.47;688028;28;861;-78
2021/12/21 01:44:34;;;;;;;151.60;24.35;;;;;;;-0.06;70.65;102168.41;687543;28;1223;-78
2021/12/21 01:49:45;;;;;;;137.15;22.65;;;;;;;-0.24;70.78;102158.25;684781;28;875;-78
2021/12/21 01:50:06;;;;;;;200.20;25.27;;;;;;;-0.25;70.87;102165.78;686389;28;1914;-78
2021/12/21 01:50:26;;;;;;;196.02;24.58;;;;;;;-0.26;71.18;102156.28;684421;28;1346;-78
2021/12/21 01:50:47;;;;;;;136.00;21.33;;;;;;;-0.26;71.16;102159.72;684638;28;1107;-78
2021/12/21 01:51:09;;;;;;;111.17;20.37;;;;;;;-0.23;71.38;102161.69;685319;28;1445;-78
2021/12/21 01:51:29;;;;;;;104.28;20.25;;;;;;;-0.32;71.06;102147.22;685354;28;845;-79
2021/12/21 01:51:50;;;;;;;115.00;21.40;;;;;;;-0.27;71.30;102154.47;685444;28;1047;-78
2021/12/21 01:52:14;;;;;;;130.27;20.07;;;;;;;-0.30;71.26;102158.53;685124;28;1983;-79
2021/12/21 01:52:34;;;;;;;146.75;20.80;;;;;;;-0.27;71.52;102157.03;684830;28;981;-78
2021/12/21 01:52:55;;;;;;;143.30;21.80;;;;;;;-0.30;71.47;102148.28;681639;29;1132;-78
2021/12/21 01:53:15;;;;;;;152.20;24.20;;;;;;;-0.20;71.28;102169.69;679923;29;992;-78
2021/12/21 01:53:36;;;;;;;137.30;23.52;;;;;;;-0.22;71.46;102160.91;683176;28;1130;-78
2021/12/21 01:53:57;;;;;;;148.25;23.23;;;;;;;-0.20;71.37;102159.44;686978;28;1082;-79
2021/12/21 01:54:18;;;;;;;169.32;25.02;;;;;;;-0.17;71.09;102159.72;684221;28;1061;-78
2021/12/21 01:54:39;;;;;;;186.63;25.07;;;;;;;-0.16;71.10;102157.28;685416;28;1613;-78
2021/12/21 01:55:00;;;;;;;158.77;23.50;;;;;;;-0.22;71.35;102160.91;685306;28;1310;-78
2021/12/21 01:55:20;;;;;;;113.70;21.00;;;;;;;-0.18;71.25;102163.91;685673;28;1285;-78
2021/12/21 01:55:42;;;;;;;91.30;19.80;;;;;;;-0.19;71.14;102156.09;679865;29;1171;-78
2021/12/21 01:56:04;;;;;;;109.03;20.95;;;;;;;-0.22;71.31;102159.28;682856;28;1124;-78
2021/12/21 01:56:25;;;;;;;120.35;21.42;;;;;;;-0.19;71.53;102156.09;687763;28;832;-78
2021/12/21 01:56:45;;;;;;;112.80;21.42;;;;;;;-0.16;71.12;102159.84;690556;28;897;-78
2021/12/21 01:57:07;;;;;;;114.47;24.23;;;;;;;-0.18;71.45;102157.91;690626;28;964;-79
2021/12/21 01:57:28;;;;;;;136.15;24.73;;;;;;;-0.18;71.29;102157.91;679943;28;1955;-79
2021/12/21 01:57:48;;;;;;;139.07;23.67;;;;;;;-0.20;71.39;102167.13;684370;28;1570;-79
2021/12/21 01:58:09;;;;;;;128.95;21.05;;;;;;;-0.19;71.45;102166.38;685208;28;1031;-78
2021/12/21 01:58:30;;;;;;;124.47;21.58;;;;;;;-0.22;71.25;102155.78;685126;28;1071;-78
2021/12/21 01:58:51;;;;;;;139.27;22.67;;;;;;;-0.19;71.30;102156.09;680831;29;1161;-78
2021/12/21 01:59:12;;;;;;;178.57;25.90;;;;;;;-0.16;71.28;102162.44;684648;28;1891;-78
2021/12/21 01:59:34;;;;;;;172.43;24.98;;;;;;;-0.20;71.22;102160.31;684385;28;1534;-79
2021/12/21 01:59:54;;;;;;;141.38;22.67;;;;;;;-0.21;71.28;102157.63;681024;28;1453;-78
2021/12/21 02:00:16;;;;;;;113.38;22.80;;;;;;;-0.20;71.46;102159.44;683079;28;1086;-78
2021/12/21 02:00:37;;;;;;;116.35;23.35;;;;;;;-0.15;71.19;102158.19;682519;29;1225;-78
2021/12/21 02:00:58;;;;;;;115.28;23.50;;;;;;;-0.17;71.41;102158.06;683113;28;1099;-78
2021/12/21 02:01:21;;;;;;;94.03;20.97;;;;;;;-0.09;71.41;102163.91;679671;29;1063;-79
2021/12/21 02:01:42;;;;;;;94.57;20.88;;;;;;;-0.16;71.37;102157.28;678509;29;816;-78
2021/12/21 02:02:10;;;;;;;93.73;21.90;;;;;;;-0.13;71.57;102161.81;682499;29;1234;-78
2021/12/21 02:02:31;;;;;;;78.47;21.45;;;;;;;-0.14;71.20;102154.84;684287;28;2017;-78
2021/12/21 02:02:51;;;;;;;77.60;20.45;;;;;;;-0.05;71.48;102165.09;684892;28;1326;-78
2021/12/21 02:03:12;;;;;;;110.03;21.07;;;;;;;-0.06;71.29;102159.03;683938;28;1696;-78
2021/12/21 02:03:33;;;;;;;130.20;21.90;;;;;;;-0.05;71.00;102160.88;687749;28;796;-79
2021/12/21 02:03:54;;;;;;;133.07;21.88;;;;;;;-0.09;71.00;102157.88;685224;28;1167;-78
2021/12/21 02:04:17;;;;;;;110.90;21.50;;;;;;;-0.14;71.25;102148.84;685625;28;1081;-79
2021/12/21 02:04:39;;;;;;;104.28;21.67;;;;;;;-0.08;71.34;102162.25;688050;28;1829;-79
2021/12/21 02:05:00;;;;;;;105.30;21.42;;;;;;;-0.12;71.25;102158.50;688237;28;1563;-78
2021/12/21 02:05:21;;;;;;;103.75;20.90;;;;;;;-0.11;71.45;102160.28;689156;28;1154;-78
2021/12/21 02:05:41;;;;;;;97.87;21.63;;;;;;;-0.16;71.20;102148.69;688964;28;697;-79
2021/12/21 02:06:03;;;;;;;108.22;22.45;;;;;;;-0.18;71.37;102145.97;690407;28;1068;-79
2021/12/21 02:06:27;;;;;;;103.65;22.35;;;;;;;-0.16;70.90;102146.13;684532;28;840;-79
2021/12/21 02:06:49;;;;;;;92.07;20.08;;;;;;;-0.16;71.37;102148.69;681001;28;1037;-78
2021/12/21 02:07:11;;;;;;;92.47;20.30;;;;;;;-0.18;71.31;102142.50;684381;28;1544;-79
2021/12/21 02:07:31;;;;;;;88.10;20.17;;;;;;;-0.13;71.29;102154.13;687866;28;1903;-78
2021/12/21 02:07:52;;;;;;;89.38;20.33;;;;;;;-0.14;71.81;102152.28;690643;28;1157;-78
2021/12/21 02:08:13;;;;;;;69.73;18.50;;;;;;;-0.08;71.33;102157.13;685068;28;1180;-79
2021/12/21 02:08:34;;;;;;;68.18;19.77;;;;;;;-0.12;71.68;102140.53;685043;28;2769;-78
2021/12/21 02:08:55;;;;;;;83.50;21.50;;;;;;;-0.11;71.73;102144.88;688404;28;1138;-78
2021/12/21 02:09:19;;;;;;;123.65;24.02;;;;;;;-0.06;70.98;102148.78;690737;28;1392;-78
2021/12/21 02:09:40;;;;;;;130.02;24.27;;;;;;;-0.06;71.22;102153.03;690468;28;1376;-78
2021/12/21 02:10:01;;;;;;;114.65;23.10;;;;;;;-0.06;71.42;102153.91;687020;28;1108;-79
2021/12/21 02:10:21;;;;;;;97.60;21.95;;;;;;;-0.08;71.29;102147.72;687837;28;1173;-78
2021/12/21 02:10:42;;;;;;;86.97;20.57;;;;;;;-0.14;70.98;102144.59;682483;28;1394;-78
2021/12/21 02:11:04;;;;;;;75.88;19.92;;;;;;;-0.12;71.39;102143.09;685117;28;1161;-79
2021/12/21 02:11:25;;;;;;;75.90;20.30;;;;;;;-0.11;71.21;102150.03;684004;28;818;-79
2021/12/21 02:11:47;;;;;;;71.53;20.17;;;;;;;-0.13;71.26;102141.28;682764;28;1151;-78
2021/12/21 02:12:11;;;;;;;94.40;20.67;;;;;;;-0.07;71.17;102156.34;683866;28;1000;-78
2021/12/21 02:12:32;;;;;;;119.25;21.17;;;;;;;-0.07;71.67;102152.09;687770;28;1876;-79
2021/12/21 02:12:52;;;;;;;115.13;21.73;;;;;;;-0.04;71.41;102152.41;690326;28;1158;-78
2021/12/21 02:13:13;;;;;;;75.63;20.13;;;;;;;-0.11;71.26;102134.63;690457;28;1084;-78
2021/12/21 02:13:36;;;;;;;64.07;18.70;;;;;;;-0.00;71.38;102157.81;687853;28;1243;-79
2021/12/21 02:13:57;;;;;;;102.30;21.00;;;;;;;0.01;71.29;102157.97;679806;29;1171;-79
2021/12/21 02:14:18;;;;;;;119.25;20.98;;;;;;;-0.04;71.46;102141.22;679876;29;1154;-78
2021/12/21 02:14:40;;;;;;;146.38;21.73;;;;;;;-0.03;71.18;102154.22;677291;29;1732;-78
2021/12/21 02:15:02;;;;;;;145.15;21.35;;;;;;;-0.05;71.32;102150.59;686939;28;1017;-78